Overview Statistics Trail Chart Weather Telemetry Raw packets
 

This is the latest recevied weather packets stored in our database for station/object DL8BGD. If no packets are shown the sender has not sent any weather packets the latest 10 day(s).

<< 4 5 6 7 8 9 10 >>
Time Temp. Humidity Pressure Rain* Wind** Luminosity Snow
1788351836 25° C 40% 1024.6 hPa 0 mm - - -
1788351234 24.44° C 41% 1024.7 hPa 0 mm - - -
1788350634 24.44° C 41% 1024.8 hPa 0 mm - - -
1788298618 15° C 73% 1026.3 hPa 0 mm - - -
1788298018 15.56° C 73% 1026.2 hPa 0 mm - - -
1788297417 15.56° C 73% 1026.3 hPa 0 mm - - -
1788296817 15.56° C 73% 1026.3 hPa 0 mm - - -
1788296217 16.11° C 72% 1026.2 hPa 0 mm - - -
1788295016 16.11° C 71% 1026.2 hPa 0 mm - - -
1788294416 16.11° C 71% 1026.2 hPa 0 mm - - -
1788293815 16.67° C 70% 1026.2 hPa 0 mm - - -
1788293215 16.67° C 70% 1026.2 hPa 0 mm - - -
1788292615 16.67° C 69% 1026.2 hPa 0 mm - - -
1788292014 16.67° C 69% 1026.2 hPa 0 mm - - -
1788291414 17.22° C 69% 1026.2 hPa 0 mm - - -
1788290813 17.22° C 68% 1026.2 hPa 0 mm - - -
1788290213 17.22° C 67% 1026.1 hPa 0 mm - - -
1788289613 17.78° C 67% 1026.1 hPa 0 mm - - -
1788289012 17.78° C 67% 1025.9 hPa 0 mm - - -
1788287812 18.33° C 64% 1025.8 hPa 0 mm - - -
1788287211 18.33° C 65% 1025.8 hPa 0 mm - - -
1788286611 18.33° C 64% 1025.6 hPa 0 mm - - -
1788286011 18.89° C 63% 1025.5 hPa 0 mm - - -
1788285410 19.44° C 63% 1025.4 hPa 0 mm - - -
1788284810 19.44° C 62% 1025.4 hPa 0 mm - - -

* Rain since midnight (hover to see other rain measurements)
** Current wind speed in m/s (hover to see current wind gust speed)